createdAt,value
2018-10-09T00:01:06.163Z,38.37
2018-10-09T00:03:35.491Z,40.93
2018-10-09T00:06:04.748Z,44.10
2018-10-09T00:08:34.615Z,44.63
2018-10-09T00:11:03.934Z,42.80
2018-10-09T00:13:33.263Z,42.67
2018-10-09T00:16:02.538Z,47.27
2018-10-09T00:18:31.879Z,43.57
2018-10-09T00:21:01.247Z,47.20
2018-10-09T00:23:30.533Z,46.90
2018-10-09T00:25:59.922Z,51.30
2018-10-09T00:28:29.175Z,44.97
2018-10-09T00:30:58.476Z,44.47
2018-10-09T00:33:27.757Z,44.70
2018-10-09T00:35:57.076Z,43.93
2018-10-09T00:38:26.364Z,45.07
2018-10-09T00:40:55.647Z,45.80
2018-10-09T00:43:25.288Z,49.40
2018-10-09T00:45:54.536Z,46.63
2018-10-09T00:48:23.820Z,45.23
2018-10-09T00:50:53.319Z,37.27
2018-10-09T00:53:22.607Z,40.97
2018-10-09T00:55:51.868Z,40.87
2018-10-09T00:58:21.137Z,42.17
2018-10-09T01:00:50.433Z,38.40
2018-10-09T01:03:19.746Z,42.53
2018-10-09T01:05:49.027Z,41.77
2018-10-09T01:08:18.279Z,44.43
2018-10-09T01:10:47.561Z,40.20
2018-10-09T01:13:16.836Z,40.37
2018-10-09T01:15:46.110Z,42.30
2018-10-09T01:18:15.364Z,41.77
2018-10-09T01:20:44.633Z,44.07
2018-10-09T01:23:13.933Z,48.27
2018-10-09T01:25:43.289Z,44.27
2018-10-09T01:28:12.544Z,46.87
2018-10-09T01:30:41.811Z,47.10
2018-10-09T01:33:11.033Z,42.77
2018-10-09T01:35:40.329Z,42.73
2018-10-09T01:38:09.586Z,46.23
2018-10-09T01:40:38.804Z,47.43
2018-10-09T01:43:08.039Z,51.27
2018-10-09T01:45:37.284Z,47.13
2018-10-09T01:48:06.569Z,52.00
2018-10-09T01:50:35.809Z,45.87
2018-10-09T01:53:05.035Z,44.97
2018-10-09T01:55:34.286Z,80.90
2018-10-09T01:58:03.627Z,55.97
2018-10-09T02:00:32.933Z,56.10
2018-10-09T02:03:02.152Z,66.60
2018-10-09T02:05:31.363Z,77.03
2018-10-09T02:08:00.707Z,76.63
2018-10-09T02:10:30.155Z,69.83
2018-10-09T02:12:59.398Z,65.87
2018-10-09T02:15:28.624Z,58.97
2018-10-09T02:17:57.893Z,61.00
2018-10-09T02:20:27.119Z,70.73
2018-10-09T02:22:56.343Z,104.47
2018-10-09T02:25:25.596Z,126.00
2018-10-09T02:27:54.866Z,53.37
2018-10-09T02:30:24.108Z,98.10
2018-10-09T02:32:53.348Z,150.57
2018-10-09T02:35:22.941Z,101.83
2018-10-09T02:37:52.215Z,165.83
2018-10-09T02:40:21.518Z,168.37
2018-10-09T02:42:50.726Z,72.83
2018-10-09T02:45:20.016Z,88.83
2018-10-09T02:47:49.253Z,71.20
2018-10-09T02:50:18.453Z,76.50
2018-10-09T02:52:47.663Z,48.23
2018-10-09T02:55:16.888Z,46.77
2018-10-09T02:57:46.105Z,44.43
2018-10-09T03:00:15.294Z,46.47
2018-10-09T03:02:44.494Z,40.17
2018-10-09T03:05:13.715Z,43.60
2018-10-09T03:07:42.919Z,48.33
2018-10-09T03:10:12.136Z,45.80
2018-10-09T03:12:41.378Z,43.07
2018-10-09T03:15:10.688Z,44.63
2018-10-09T03:17:39.927Z,47.60
2018-10-09T03:20:09.131Z,47.90
2018-10-09T03:22:38.351Z,55.80
2018-10-09T03:25:07.596Z,51.13
2018-10-09T03:27:36.815Z,51.37
2018-10-09T03:30:08.300Z,48.00
2018-10-09T03:32:37.853Z,49.27
2018-10-09T03:35:07.144Z,48.60
2018-10-09T03:37:36.454Z,54.27
2018-10-09T03:40:05.835Z,49.60
2018-10-09T03:42:35.060Z,49.27
2018-10-09T03:45:04.352Z,50.03
2018-10-09T03:47:33.574Z,48.07
2018-10-09T03:50:02.819Z,52.67
2018-10-09T03:52:32.085Z,49.80
2018-10-09T03:55:01.299Z,42.17
2018-10-09T03:57:30.636Z,47.23
2018-10-09T03:59:59.872Z,50.20
2018-10-09T04:02:29.112Z,50.80
2018-10-09T04:04:58.355Z,48.27
2018-10-09T04:07:27.622Z,48.77
2018-10-09T04:09:56.859Z,50.07
2018-10-09T04:12:26.072Z,48.83
2018-10-09T04:14:55.325Z,46.77
2018-10-09T04:17:24.604Z,51.90
2018-10-09T04:19:53.865Z,56.87
2018-10-09T04:22:23.704Z,58.30
2018-10-09T04:24:52.930Z,58.00
2018-10-09T04:27:22.184Z,53.70
2018-10-09T04:29:51.431Z,50.40
2018-10-09T04:32:20.687Z,54.93
2018-10-09T04:34:50.014Z,53.00
2018-10-09T04:37:19.280Z,50.03
2018-10-09T04:39:48.530Z,51.60
2018-10-09T04:42:17.767Z,50.83
2018-10-09T04:44:47.009Z,46.77
2018-10-09T04:47:16.219Z,51.53
2018-10-09T04:49:45.523Z,49.97
2018-10-09T04:52:14.760Z,51.00
2018-10-09T04:54:44.008Z,53.30
2018-10-09T04:57:13.259Z,51.33
2018-10-09T04:59:42.544Z,46.00
2018-10-09T05:02:11.801Z,51.87
2018-10-09T05:04:41.080Z,50.30
2018-10-09T05:07:10.320Z,48.37
2018-10-09T05:09:39.560Z,53.03
2018-10-09T05:12:08.802Z,54.73
2018-10-09T05:14:38.029Z,65.27
2018-10-09T05:17:07.588Z,60.10
2018-10-09T05:19:36.833Z,64.43
2018-10-09T05:22:06.206Z,70.07
2018-10-09T05:24:35.471Z,57.83
2018-10-09T05:27:04.736Z,61.20
2018-10-09T05:29:33.951Z,56.90
2018-10-09T05:32:03.219Z,58.83
2018-10-09T05:34:32.543Z,63.77
2018-10-09T05:37:01.911Z,63.07
2018-10-09T05:39:31.149Z,59.50
2018-10-09T05:42:00.396Z,55.70
2018-10-09T05:44:29.646Z,64.13
2018-10-09T05:46:58.864Z,57.27
2018-10-09T05:49:28.103Z,62.53
2018-10-09T05:51:57.331Z,63.27
2018-10-09T05:54:26.588Z,60.73
2018-10-09T05:56:55.841Z,63.10
2018-10-09T05:59:25.067Z,78.53
2018-10-09T06:01:54.292Z,84.77
2018-10-09T06:04:23.539Z,70.97
2018-10-09T06:06:52.755Z,78.90
2018-10-09T06:09:22.058Z,72.20
2018-10-09T06:11:51.344Z,76.67
2018-10-09T06:14:20.567Z,88.40
2018-10-09T06:16:49.788Z,93.90
2018-10-09T06:19:18.999Z,98.77
2018-10-09T06:21:48.226Z,94.13
2018-10-09T06:24:17.589Z,88.57
2018-10-09T06:26:46.820Z,73.93
2018-10-09T06:29:16.059Z,78.07
2018-10-09T06:31:45.289Z,91.67
2018-10-09T06:34:14.558Z,80.30
2018-10-09T06:36:43.789Z,64.77
2018-10-09T06:39:13.019Z,63.77
2018-10-09T06:41:42.871Z,66.53
2018-10-09T06:44:12.231Z,61.87
2018-10-09T06:46:41.460Z,67.47
2018-10-09T06:49:10.728Z,61.40
2018-10-09T06:51:39.976Z,60.83
2018-10-09T06:54:09.280Z,60.03
2018-10-09T06:56:38.431Z,61.77
2018-10-09T06:59:07.698Z,60.73
2018-10-09T07:01:36.956Z,51.93
2018-10-09T07:04:06.197Z,49.43
2018-10-09T07:06:35.439Z,47.07
2018-10-09T07:09:07.854Z,47.13
2018-10-09T07:11:37.245Z,44.63
2018-10-09T07:14:06.451Z,40.00
2018-10-09T07:16:35.877Z,44.23
2018-10-09T07:19:05.120Z,44.97
2018-10-09T07:21:34.353Z,44.97
2018-10-09T07:24:03.597Z,50.00
2018-10-09T07:26:32.851Z,48.93
2018-10-09T07:29:02.169Z,51.13
2018-10-09T07:31:31.424Z,49.97
2018-10-09T07:34:00.696Z,54.60
2018-10-09T07:36:29.934Z,47.83
2018-10-09T07:38:59.176Z,50.13
2018-10-09T07:41:28.384Z,51.23
2018-10-09T07:43:58.145Z,52.90
2018-10-09T07:46:29.661Z,50.13
2018-10-09T07:48:59.901Z,48.77
2018-10-09T07:51:29.103Z,56.07
2018-10-09T07:53:58.491Z,54.93
2018-10-09T07:56:27.735Z,59.93
2018-10-09T07:58:56.957Z,60.93
2018-10-09T08:01:26.196Z,73.13
2018-10-09T08:03:55.410Z,68.00
2018-10-09T08:06:24.639Z,71.30
2018-10-09T08:08:54.078Z,79.53
2018-10-09T08:11:23.371Z,73.27
2018-10-09T08:13:52.584Z,70.80
2018-10-09T08:16:21.843Z,68.00
2018-10-09T08:18:51.039Z,73.20
2018-10-09T08:21:20.367Z,75.67
2018-10-09T08:23:49.572Z,76.57
2018-10-09T08:26:18.788Z,81.53
2018-10-09T08:28:48.023Z,86.97
2018-10-09T08:31:17.309Z,85.50
2018-10-09T08:33:46.527Z,86.13
2018-10-09T08:36:18.191Z,79.63
2018-10-09T08:38:48.731Z,70.83
2018-10-09T08:41:18.030Z,66.97
2018-10-09T08:43:47.224Z,75.23
2018-10-09T08:46:16.483Z,79.03
2018-10-09T08:48:45.698Z,77.10
2018-10-09T08:51:14.936Z,78.70
2018-10-09T08:53:44.186Z,66.37
2018-10-09T08:56:13.412Z,72.30
2018-10-09T08:58:42.645Z,70.60
2018-10-09T09:01:11.871Z,70.23
2018-10-09T09:03:41.223Z,63.90
2018-10-09T09:06:10.403Z,61.93
2018-10-09T09:08:39.752Z,64.50
2018-10-09T09:11:08.972Z,56.00
2018-10-09T09:13:38.202Z,56.17
2018-10-09T09:16:07.758Z,57.10
2018-10-09T09:18:37.079Z,56.10
2018-10-09T09:21:06.617Z,56.80
2018-10-09T09:23:35.831Z,57.53
2018-10-09T09:26:05.090Z,65.87
2018-10-09T09:28:34.309Z,69.97
2018-10-09T09:31:03.542Z,61.23
2018-10-09T09:33:32.790Z,69.50
2018-10-09T09:36:02.039Z,62.07
2018-10-09T09:38:31.283Z,65.73
2018-10-09T09:41:00.509Z,67.20
2018-10-09T09:43:29.777Z,60.30
2018-10-09T09:45:59.052Z,71.17
2018-10-09T09:48:28.268Z,69.10
2018-10-09T09:50:57.475Z,64.50
2018-10-09T09:53:26.755Z,61.63
2018-10-09T09:55:55.968Z,59.97
2018-10-09T09:58:25.283Z,58.70
2018-10-09T10:00:58.323Z,58.83
2018-10-09T10:03:28.136Z,55.60
2018-10-09T10:05:57.347Z,59.10
2018-10-09T10:08:26.632Z,63.27
2018-10-09T10:10:55.869Z,61.60
2018-10-09T10:13:25.191Z,56.67
2018-10-09T10:15:54.488Z,49.47
2018-10-09T10:18:23.680Z,49.33
2018-10-09T10:20:52.908Z,47.33
2018-10-09T10:23:22.183Z,47.40
2018-10-09T10:25:51.425Z,46.53
2018-10-09T10:28:20.674Z,45.03
2018-10-09T10:30:49.929Z,46.77
2018-10-09T10:33:19.284Z,46.37
2018-10-09T10:35:48.568Z,44.27
2018-10-09T10:38:17.776Z,42.50
2018-10-09T10:40:46.985Z,46.57
2018-10-09T10:43:16.239Z,41.80
2018-10-09T10:45:45.470Z,42.13
2018-10-09T10:48:14.738Z,41.47
2018-10-09T10:50:43.935Z,42.97
2018-10-09T10:53:13.207Z,41.93
2018-10-09T10:55:42.439Z,44.13
2018-10-09T10:58:11.692Z,44.57
2018-10-09T11:00:41.007Z,43.47
2018-10-09T11:03:10.256Z,43.27
2018-10-09T11:05:39.527Z,39.00
2018-10-09T11:08:08.796Z,40.63
2018-10-09T11:10:38.019Z,42.63
2018-10-09T11:13:07.304Z,42.43
2018-10-09T11:15:36.525Z,46.60
2018-10-09T11:18:05.796Z,43.20
2018-10-09T11:20:35.034Z,43.00
2018-10-09T11:23:04.347Z,41.90
2018-10-09T11:25:33.557Z,43.50
2018-10-09T11:28:02.783Z,36.97
2018-10-09T11:30:32.016Z,39.37
2018-10-09T11:33:01.240Z,37.57
2018-10-09T11:35:30.547Z,36.77
2018-10-09T11:37:59.785Z,33.93
2018-10-09T11:40:29.027Z,34.90
2018-10-09T11:42:58.245Z,37.33
2018-10-09T11:45:27.465Z,33.00
2018-10-09T11:47:56.696Z,29.27
2018-10-09T11:50:25.932Z,33.53
2018-10-09T11:52:55.156Z,37.90
2018-10-09T11:55:24.435Z,32.33
2018-10-09T11:57:54.054Z,31.50
2018-10-09T12:00:23.377Z,26.65
2018-10-09T12:02:52.649Z,28.85
2018-10-09T12:05:21.879Z,31.00
2018-10-09T12:07:51.135Z,29.15
2018-10-09T12:10:20.391Z,30.60
2018-10-09T12:12:49.645Z,25.45
2018-10-09T12:15:18.878Z,32.33
2018-10-09T12:17:48.114Z,34.05
2018-10-09T12:20:17.395Z,29.37
2018-10-09T12:22:46.663Z,34.00
2018-10-09T12:25:15.977Z,31.02
2018-10-09T12:27:45.191Z,28.70
2018-10-09T12:30:14.420Z,24.67
2018-10-09T12:32:43.743Z,30.82
2018-10-09T12:35:12.944Z,28.60
2018-10-09T12:37:42.180Z,27.80
2018-10-09T12:40:11.411Z,31.35
2018-10-09T12:42:40.611Z,33.25
2018-10-09T12:45:09.877Z,29.82
2018-10-09T12:47:39.512Z,28.20
2018-10-09T12:50:08.765Z,30.65
2018-10-09T12:52:38.369Z,27.70
2018-10-09T12:55:08.177Z,27.10
2018-10-09T12:57:37.388Z,24.18
2018-10-09T13:00:06.609Z,25.40
2018-10-09T13:02:35.801Z,24.95
2018-10-09T13:05:05.035Z,26.45
2018-10-09T13:07:34.298Z,26.10
2018-10-09T13:10:03.528Z,25.43
2018-10-09T13:12:32.741Z,23.67
2018-10-09T13:15:01.964Z,23.03
2018-10-09T13:17:31.253Z,25.25
2018-10-09T13:20:00.415Z,27.33
2018-10-09T13:22:29.956Z,25.50
2018-10-09T13:24:58.856Z,24.97
2018-10-09T13:27:28.088Z,26.40
2018-10-09T13:29:57.303Z,28.20
2018-10-09T13:32:26.567Z,25.20
2018-10-09T13:34:55.780Z,28.03
2018-10-09T13:37:24.996Z,21.77
2018-10-09T13:39:54.206Z,24.35
2018-10-09T13:42:23.430Z,24.07
2018-10-09T13:44:52.637Z,21.07
2018-10-09T13:47:21.885Z,21.27
2018-10-09T13:49:51.190Z,21.20
2018-10-09T13:52:20.433Z,20.15
2018-10-09T13:54:49.660Z,19.25
2018-10-09T13:57:18.941Z,21.15
2018-10-09T13:59:48.090Z,21.05
2018-10-09T14:02:18.184Z,20.97
2018-10-09T14:04:47.475Z,31.57
2018-10-09T14:07:16.721Z,19.37
2018-10-09T14:09:45.974Z,21.13
2018-10-09T14:12:15.190Z,19.43
2018-10-09T14:14:44.507Z,19.37
2018-10-09T14:17:13.720Z,20.27
2018-10-09T14:19:42.990Z,19.30
2018-10-09T14:22:12.282Z,22.17
2018-10-09T14:24:41.579Z,19.77
2018-10-09T14:27:10.805Z,18.93
2018-10-09T14:29:40.030Z,21.27
2018-10-09T14:32:09.227Z,21.43
2018-10-09T14:34:38.486Z,22.00
2018-10-09T14:37:08.174Z,17.40
2018-10-09T14:39:37.369Z,19.90
2018-10-09T14:42:06.600Z,17.63
2018-10-09T14:44:35.804Z,19.03
2018-10-09T14:47:05.013Z,18.40
2018-10-09T14:49:34.359Z,22.10
2018-10-09T14:52:03.607Z,20.63
2018-10-09T14:54:32.821Z,18.63
2018-10-09T14:57:02.027Z,19.63
2018-10-09T14:59:31.276Z,22.07
2018-10-09T15:02:00.528Z,21.43
2018-10-09T15:04:29.788Z,20.97
2018-10-09T15:06:59.071Z,23.33
2018-10-09T15:09:28.330Z,23.50
2018-10-09T15:11:57.532Z,25.37
2018-10-09T15:14:26.749Z,22.17
2018-10-09T15:16:55.974Z,25.50
2018-10-09T15:19:25.197Z,21.50
2018-10-09T15:21:54.521Z,27.20
2018-10-09T15:24:23.763Z,22.87
2018-10-09T15:26:52.983Z,23.60
2018-10-09T15:29:22.181Z,29.33
2018-10-09T15:31:51.379Z,25.10
2018-10-09T15:34:20.618Z,25.23
2018-10-09T15:36:49.851Z,23.67
2018-10-09T15:39:19.107Z,27.23
2018-10-09T15:41:48.318Z,25.37
2018-10-09T15:44:17.594Z,25.87
2018-10-09T15:46:46.933Z,25.17
2018-10-09T15:49:16.172Z,26.00
2018-10-09T15:51:45.429Z,23.77
2018-10-09T15:54:14.707Z,23.67
2018-10-09T15:56:43.957Z,23.53
2018-10-09T15:59:13.178Z,24.27
2018-10-09T16:01:42.429Z,21.70
2018-10-09T16:04:11.769Z,22.87
2018-10-09T16:06:41.050Z,22.53
2018-10-09T16:09:11.194Z,22.00
2018-10-09T16:11:40.564Z,24.77
2018-10-09T16:14:09.768Z,23.90
2018-10-09T16:16:38.968Z,24.87
2018-10-09T16:19:08.483Z,25.53
2018-10-09T16:21:37.892Z,29.53
2018-10-09T16:24:07.160Z,27.27
2018-10-09T16:26:36.389Z,35.17
2018-10-09T16:29:05.594Z,29.20
2018-10-09T16:31:34.900Z,25.80
2018-10-09T16:34:04.147Z,31.67
2018-10-09T16:36:33.375Z,39.00
2018-10-09T16:39:02.651Z,42.10
2018-10-09T16:41:31.864Z,37.27
2018-10-09T16:44:01.119Z,35.17
2018-10-09T16:46:30.528Z,27.83
2018-10-09T16:48:59.840Z,30.50
2018-10-09T16:51:29.064Z,27.87
2018-10-09T16:53:58.356Z,27.57
2018-10-09T16:56:27.569Z,29.77
2018-10-09T16:58:57.152Z,29.70
2018-10-09T17:01:26.550Z,28.70
2018-10-09T17:03:56.124Z,27.70
2018-10-09T17:06:25.419Z,31.77
2018-10-09T17:08:55.291Z,31.07
2018-10-09T17:11:24.598Z,27.60
2018-10-09T17:13:53.968Z,29.43
2018-10-09T17:16:23.345Z,30.87
2018-10-09T17:18:52.704Z,35.43
2018-10-09T17:21:22.094Z,30.17
2018-10-09T17:23:51.312Z,30.73
2018-10-09T17:26:20.527Z,30.00
2018-10-09T17:28:50.137Z,30.87
2018-10-09T17:31:19.485Z,31.37
2018-10-09T17:33:48.937Z,34.37
2018-10-09T17:36:18.264Z,33.73
2018-10-09T17:38:47.603Z,32.57
2018-10-09T17:41:17.195Z,36.83
2018-10-09T17:43:46.434Z,30.60
2018-10-09T17:46:15.781Z,35.00
2018-10-09T17:48:45.079Z,33.30
2018-10-09T17:51:14.228Z,36.13
2018-10-09T17:53:43.452Z,34.83
2018-10-09T17:56:12.729Z,35.53
2018-10-09T17:58:41.980Z,38.27
2018-10-09T18:01:11.313Z,33.57
2018-10-09T18:03:40.570Z,34.40
2018-10-09T18:06:10.045Z,36.57
2018-10-09T18:08:39.768Z,38.67
2018-10-09T18:11:09.580Z,37.23
2018-10-09T18:13:38.792Z,40.90
2018-10-09T18:16:08.349Z,43.77
2018-10-09T18:18:37.648Z,40.30
2018-10-09T18:21:06.960Z,40.77
2018-10-09T18:23:36.234Z,42.10
2018-10-09T18:26:05.476Z,40.87
2018-10-09T18:28:34.722Z,40.10
2018-10-09T18:31:04.000Z,40.70
2018-10-09T18:33:33.248Z,43.07
2018-10-09T18:36:02.492Z,38.93
2018-10-09T18:38:31.719Z,37.93
2018-10-09T18:41:01.053Z,39.67
2018-10-09T18:43:30.215Z,41.60
2018-10-09T18:45:59.511Z,37.37
2018-10-09T18:48:28.763Z,36.77
2018-10-09T18:50:57.993Z,42.63
2018-10-09T18:53:27.234Z,40.93
2018-10-09T18:55:56.487Z,40.40
2018-10-09T18:58:25.760Z,37.03
2018-10-09T19:00:55.111Z,42.70
2018-10-09T19:03:24.356Z,45.70
2018-10-09T19:05:53.691Z,39.43
2018-10-09T19:08:22.952Z,45.37
2018-10-09T19:10:52.256Z,42.47
2018-10-09T19:13:21.451Z,43.77
2018-10-09T19:15:50.812Z,45.70
2018-10-09T19:18:20.060Z,43.13
2018-10-09T19:20:49.376Z,39.40
2018-10-09T19:23:18.618Z,42.97
2018-10-09T19:25:47.900Z,40.33
2018-10-09T19:28:17.183Z,40.90
2018-10-09T19:30:46.444Z,44.20
2018-10-09T19:33:15.857Z,44.13
2018-10-09T19:35:45.141Z,39.73
2018-10-09T19:38:14.387Z,44.83
2018-10-09T19:40:43.625Z,49.27
2018-10-09T19:43:12.903Z,41.77
2018-10-09T19:45:42.133Z,45.37
2018-10-09T19:48:11.360Z,46.30
2018-10-09T19:50:40.640Z,42.47
2018-10-09T19:53:09.904Z,39.63
2018-10-09T19:55:39.648Z,46.73
2018-10-09T19:58:08.887Z,43.17
2018-10-09T20:00:38.149Z,42.23
2018-10-09T20:03:07.528Z,44.17
2018-10-09T20:05:36.762Z,43.47
2018-10-09T20:08:06.232Z,43.37
2018-10-09T20:10:35.508Z,46.63
2018-10-09T20:13:04.834Z,46.07
2018-10-09T20:15:34.134Z,48.13
2018-10-09T20:18:03.345Z,43.60
2018-10-09T20:20:32.584Z,50.53
2018-10-09T20:23:01.842Z,38.73
2018-10-09T20:25:31.067Z,47.73
2018-10-09T20:28:00.301Z,47.90
2018-10-09T20:30:29.531Z,49.50
2018-10-09T20:32:58.783Z,52.00
2018-10-09T20:35:28.004Z,54.17
2018-10-09T20:37:57.229Z,44.27
2018-10-09T20:40:26.458Z,42.27
2018-10-09T20:42:55.691Z,39.83
2018-10-09T20:45:24.907Z,44.07
2018-10-09T20:47:54.201Z,39.87
2018-10-09T20:50:23.396Z,38.97
2018-10-09T20:52:52.665Z,40.30
2018-10-09T20:55:21.885Z,39.63
2018-10-09T20:57:51.280Z,38.90
2018-10-09T21:00:20.507Z,44.17
2018-10-09T21:02:49.776Z,46.27
2018-10-09T21:05:19.028Z,50.83
2018-10-09T21:07:48.211Z,40.80
2018-10-09T21:10:17.529Z,38.63
2018-10-09T21:12:46.772Z,39.07
2018-10-09T21:15:16.049Z,37.40
2018-10-09T21:18:02.206Z,38.97
2018-10-09T21:20:31.569Z,38.07
2018-10-09T21:23:00.842Z,43.83
2018-10-09T21:25:30.086Z,40.47
2018-10-09T21:27:59.356Z,40.87
2018-10-09T21:30:28.572Z,42.57
2018-10-09T21:32:57.879Z,39.97
2018-10-09T21:35:27.105Z,35.53
2018-10-09T21:37:56.339Z,39.07
2018-10-09T21:40:25.561Z,38.03
2018-10-09T21:42:54.747Z,41.13
2018-10-09T21:45:23.972Z,35.80
2018-10-09T21:48:04.959Z,35.90
2018-10-09T21:50:34.214Z,37.53
2018-10-09T21:53:03.428Z,40.83
2018-10-09T21:55:32.628Z,36.40
2018-10-09T21:58:01.897Z,37.33
2018-10-09T22:00:35.205Z,35.70
2018-10-09T22:03:04.532Z,37.23
2018-10-09T22:05:33.823Z,36.63
2018-10-09T22:08:03.029Z,38.37
2018-10-09T22:10:32.239Z,36.43
2018-10-09T22:13:01.508Z,42.77
2018-10-09T22:15:30.706Z,40.90
2018-10-09T22:17:59.927Z,37.13
2018-10-09T22:20:29.160Z,36.10
2018-10-09T22:22:58.388Z,39.00
2018-10-09T22:25:27.580Z,37.93
2018-10-09T22:27:56.816Z,35.90
2018-10-09T22:30:26.024Z,36.97
2018-10-09T22:32:55.279Z,38.80
2018-10-09T22:35:24.505Z,39.77
2018-10-09T22:37:53.714Z,58.13
2018-10-09T22:40:22.961Z,45.97
2018-10-09T22:42:52.159Z,44.07
2018-10-09T22:45:21.438Z,39.80
2018-10-09T22:47:50.616Z,38.27
2018-10-09T22:50:19.840Z,35.93
2018-10-09T22:52:49.042Z,38.13
2018-10-09T22:55:18.270Z,36.40
2018-10-09T22:57:47.519Z,35.67
2018-10-09T23:00:16.742Z,39.00
2018-10-09T23:02:45.973Z,36.80
2018-10-09T23:05:15.230Z,36.57
2018-10-09T23:07:44.427Z,38.33
2018-10-09T23:10:13.633Z,35.73
2018-10-09T23:12:42.877Z,41.80
2018-10-09T23:15:12.147Z,38.37
2018-10-09T23:17:41.341Z,31.97
2018-10-09T23:20:10.618Z,35.67
2018-10-09T23:22:39.842Z,36.00
2018-10-09T23:25:09.046Z,33.57
2018-10-09T23:27:38.380Z,38.30
2018-10-09T23:30:08.308Z,38.47
2018-10-09T23:32:37.842Z,44.40
2018-10-09T23:35:07.168Z,45.77
2018-10-09T23:37:36.370Z,40.57
2018-10-09T23:40:05.590Z,40.43
2018-10-09T23:42:34.835Z,42.00
2018-10-09T23:45:04.071Z,42.47
2018-10-09T23:47:33.286Z,40.73
2018-10-09T23:50:02.492Z,40.47
2018-10-09T23:52:31.712Z,44.40
2018-10-09T23:55:00.958Z,45.23
2018-10-09T23:57:30.217Z,56.93
2018-10-09T23:59:59.425Z,55.70
